Time;durP1;ratioP1;P1;durP2;ratioP2;P2;SDS_P1;SDS_P2;PMS_P1;PMS_P2;Temp;Humidity;BMP_temperature;BMP_pressure;BME280_temperature;BME280_humidity;BME280_pressure;Samples;Min_cycle;Max_cycle;Signal;HPM_P1;HPM_P2
2022/04/20 00:01:29;;;;;;;3.83;1.30;;;;;;;6.81;57.76;101121.69;6005254;28;20285;-70
2022/04/20 00:04:24;;;;;;;2.97;1.40;;;;;;;6.69;57.15;101120.78;6006675;28;20031;-71
2022/04/20 00:07:19;;;;;;;2.60;1.00;;;;;;;6.82;57.81;101124.19;6018428;28;20063;-70
2022/04/20 00:10:15;;;;;;;2.08;1.25;;;;;;;6.57;58.21;101121.69;6005216;28;20077;-70
2022/04/20 00:13:10;;;;;;;2.87;1.33;;;;;;;6.37;59.22;101120.47;6018734;28;20482;-70
2022/04/20 00:16:05;;;;;;;3.93;1.27;;;;;;;6.40;59.74;101122.03;6005314;28;20030;-70
2022/04/20 00:19:01;;;;;;;4.03;1.67;;;;;;;6.33;59.95;101123.44;6006152;28;20045;-70
2022/04/20 00:21:56;;;;;;;3.93;1.20;;;;;;;6.27;60.23;101123.88;6005063;28;20027;-70
2022/04/20 00:24:51;;;;;;;3.03;1.43;;;;;;;6.21;60.57;101134.81;6005747;28;20092;-71
2022/04/20 00:27:47;;;;;;;2.77;1.37;;;;;;;6.41;60.35;101129.00;6005575;28;20043;-71
2022/04/20 00:30:42;;;;;;;5.73;1.57;;;;;;;6.57;59.70;101126.94;6004769;28;20038;-70
2022/04/20 00:33:37;;;;;;;2.30;1.03;;;;;;;6.38;60.74;101127.44;6005753;28;20088;-70
2022/04/20 00:36:32;;;;;;;4.03;1.33;;;;;;;6.15;61.28;101137.88;6005525;28;20045;-70
2022/04/20 00:39:28;;;;;;;3.90;1.40;;;;;;;5.89;61.26;101135.28;6004967;28;20491;-71
2022/04/20 00:42:23;;;;;;;3.10;1.30;;;;;;;6.07;61.61;101132.31;6004673;28;20074;-70
2022/04/20 00:45:19;;;;;;;3.70;1.50;;;;;;;6.17;61.65;101144.72;5988141;28;20030;-70
2022/04/20 00:48:15;;;;;;;2.92;1.50;;;;;;;6.19;60.70;101145.47;6005328;28;20035;-70
2022/04/20 00:51:10;;;;;;;3.25;1.50;;;;;;;6.03;61.05;101141.38;6004497;28;20502;-70
2022/04/20 00:54:06;;;;;;;3.63;1.40;;;;;;;5.72;62.41;101138.19;6005090;28;20082;-70
2022/04/20 00:57:01;;;;;;;6.35;1.63;;;;;;;5.77;61.48;101130.81;6004722;28;20037;-70
2022/04/20 01:00:00;;;;;;;4.35;1.58;;;;;;;5.87;62.80;101131.91;6005875;28;20486;-69
2022/04/20 01:02:55;;;;;;;4.43;1.40;;;;;;;5.90;62.21;101136.97;6005260;28;20042;-70
2022/04/20 01:05:51;;;;;;;3.05;1.15;;;;;;;6.07;61.72;101138.44;6013540;28;20030;-70
2022/04/20 01:08:46;;;;;;;5.43;1.83;;;;;;;5.86;61.49;101129.38;6006494;28;20045;-70
2022/04/20 01:11:42;;;;;;;3.05;1.30;;;;;;;5.76;62.04;101147.53;6008329;28;20031;-70
2022/04/20 01:14:38;;;;;;;3.60;1.42;;;;;;;5.67;62.73;101142.09;6005624;28;20037;-69
2022/04/20 01:17:33;;;;;;;2.97;1.17;;;;;;;5.75;62.96;101138.00;6003570;28;20033;-70
2022/04/20 01:20:30;;;;;;;4.30;1.55;;;;;;;5.94;62.34;101138.44;6001703;28;20034;-69
2022/04/20 01:23:26;;;;;;;4.03;1.50;;;;;;;5.82;61.80;101141.03;6002942;28;20042;-69
2022/04/20 01:26:21;;;;;;;4.57;2.13;;;;;;;5.74;62.79;101146.81;6003093;28;20049;-69
2022/04/20 01:29:18;;;;;;;5.13;1.50;;;;;;;5.60;62.42;101144.28;6003365;28;20081;-70
2022/04/20 01:32:13;;;;;;;2.15;1.20;;;;;;;5.71;62.81;101147.03;6002426;28;20651;-69
2022/04/20 01:35:09;;;;;;;4.00;1.55;;;;;;;5.43;63.51;101146.38;6003173;28;20035;-70
2022/04/20 01:38:04;;;;;;;3.33;1.30;;;;;;;5.50;63.70;101148.47;6003488;28;20045;-70
2022/04/20 01:40:59;;;;;;;6.63;1.77;;;;;;;5.45;63.84;101147.94;6002226;28;20034;-70
2022/04/20 01:43:55;;;;;;;2.63;1.27;;;;;;;5.50;64.01;101143.22;6002776;28;20043;-70
2022/04/20 01:46:51;;;;;;;4.40;1.48;;;;;;;5.33;64.69;101135.59;6002429;28;20042;-70
2022/04/20 01:49:46;;;;;;;2.50;1.30;;;;;;;5.28;64.30;101146.44;6002940;28;20062;-70
2022/04/20 01:52:41;;;;;;;2.77;1.40;;;;;;;5.16;65.99;101138.53;6002223;28;20650;-70
2022/04/20 01:55:37;;;;;;;2.13;1.07;;;;;;;5.37;65.59;101134.47;6002489;28;20039;-70
2022/04/20 01:58:34;;;;;;;3.42;1.40;;;;;;;5.26;65.92;101134.34;6002699;28;20030;-70
2022/04/20 02:04:43;;;;;;;;;;;;;;;5.54;66.40;101139.47;6004614;28;20482;-70
2022/04/20 02:07:39;;;;;;;2.77;1.33;;;;;;;5.29;66.22;101144.66;6007231;28;19914;-69
2022/04/20 02:10:34;;;;;;;4.13;1.77;;;;;;;5.61;64.46;101145.97;6002416;28;20100;-70
2022/04/20 02:13:30;;;;;;;4.35;1.92;;;;;;;5.46;65.25;101135.66;6016128;28;20132;-69
2022/04/20 02:16:25;;;;;;;3.40;2.03;;;;;;;5.55;64.78;101135.00;6003079;28;20035;-69
2022/04/20 02:19:20;;;;;;;4.68;2.20;;;;;;;5.60;65.65;101133.75;6002992;28;20035;-70
2022/04/20 02:22:16;;;;;;;5.07;1.90;;;;;;;5.59;65.53;101134.72;6002788;28;20038;-70
2022/04/20 02:25:11;;;;;;;3.40;1.45;;;;;;;5.36;65.04;101141.50;6002567;28;20482;-69
2022/04/20 02:28:06;;;;;;;5.77;1.80;;;;;;;5.38;64.69;101136.16;6003170;28;20364;-69
2022/04/20 02:31:02;;;;;;;4.57;1.37;;;;;;;5.32;64.25;101139.19;6002395;28;20043;-70
2022/04/20 02:33:57;;;;;;;4.93;1.60;;;;;;;5.12;64.46;101143.13;6002457;28;20035;-70
2022/04/20 02:36:52;;;;;;;2.20;1.00;;;;;;;5.07;64.72;101141.75;6003148;28;20035;-69
2022/04/20 02:39:48;;;;;;;5.57;1.43;;;;;;;5.25;66.75;101143.16;5985301;28;20046;-69
2022/04/20 02:42:44;;;;;;;4.50;1.40;;;;;;;5.34;66.43;101145.19;5984951;28;20282;-70
2022/04/20 02:45:39;;;;;;;2.13;1.20;;;;;;;5.08;64.82;101161.84;6002143;28;20282;-69
2022/04/20 02:48:35;;;;;;;4.10;1.43;;;;;;;4.99;64.90;101146.66;6002714;28;20031;-70
2022/04/20 02:51:30;;;;;;;2.63;1.13;;;;;;;5.04;66.44;101149.84;6001934;28;20300;-70
2022/04/20 02:54:27;;;;;;;1.90;1.20;;;;;;;5.13;65.64;101144.00;6002298;28;20089;-70
2022/04/20 02:57:22;;;;;;;5.72;1.90;;;;;;;4.94;66.57;101149.59;6002941;28;20074;-69
2022/04/20 03:00:18;;;;;;;8.15;2.58;;;;;;;4.79;67.59;101150.56;6001537;28;20572;-70
2022/04/20 03:03:13;;;;;;;4.43;1.90;;;;;;;4.93;66.25;101144.44;6002658;28;20038;-70
2022/04/20 03:06:08;;;;;;;4.05;1.75;;;;;;;4.60;67.51;101144.81;6014413;28;20033;-70
2022/04/20 03:09:04;;;;;;;2.97;1.40;;;;;;;4.90;68.66;101136.75;6002333;28;20038;-70
2022/04/20 03:11:59;;;;;;;5.85;1.40;;;;;;;4.94;67.05;101144.34;6004760;28;20030;-69
2022/04/20 03:14:55;;;;;;;4.13;1.40;;;;;;;4.68;66.40;101138.13;6001066;28;20027;-69
2022/04/20 03:17:50;;;;;;;4.57;1.52;;;;;;;4.72;67.66;101139.63;6002721;28;20081;-70
2022/04/20 03:20:45;;;;;;;5.47;1.50;;;;;;;4.74;67.05;101143.00;6001602;28;20069;-70
2022/04/20 03:23:41;;;;;;;3.20;1.93;;;;;;;4.95;66.92;101150.44;6001877;28;20394;-70
2022/04/20 03:26:37;;;;;;;4.88;2.05;;;;;;;4.89;66.29;101141.19;6002082;28;20089;-70
2022/04/20 03:29:32;;;;;;;4.50;2.00;;;;;;;4.63;67.11;101153.34;6002035;28;20606;-70
2022/04/20 03:32:27;;;;;;;3.50;1.60;;;;;;;4.54;67.79;101143.41;6001330;28;20038;-70
2022/04/20 03:35:23;;;;;;;3.28;1.70;;;;;;;4.64;67.95;101148.94;6001861;28;20634;-69
2022/04/20 03:38:18;;;;;;;3.28;1.60;;;;;;;4.54;67.14;101156.53;6001983;28;20042;-70
2022/04/20 03:41:14;;;;;;;4.80;2.30;;;;;;;4.32;68.10;101145.69;6001417;28;20031;-69
2022/04/20 03:44:09;;;;;;;4.63;1.80;;;;;;;4.28;67.77;101154.72;6001888;28;20050;-69
2022/04/20 03:47:04;;;;;;;3.40;1.17;;;;;;;4.32;68.40;101145.69;6001866;28;20364;-70
2022/04/20 03:50:00;;;;;;;6.07;1.40;;;;;;;4.29;68.61;101145.06;6001510;28;20062;-70
2022/04/20 03:52:55;;;;;;;11.60;2.03;;;;;;;4.20;67.94;101146.47;6001568;28;20046;-69
2022/04/20 03:55:50;;;;;;;6.83;1.43;;;;;;;4.26;68.23;101148.72;6002052;28;20118;-69
2022/04/20 03:58:46;;;;;;;2.97;1.30;;;;;;;4.32;68.35;101140.44;6000784;28;20031;-69
2022/04/20 04:01:41;;;;;;;4.50;1.63;;;;;;;4.21;67.90;101143.75;6001165;28;20650;-69
2022/04/20 04:04:36;;;;;;;4.00;1.77;;;;;;;4.17;68.82;101154.53;6002957;28;20106;-70
2022/04/20 04:07:32;;;;;;;3.38;1.55;;;;;;;4.22;69.22;101147.22;6005167;28;20019;-69
2022/04/20 04:10:27;;;;;;;3.83;2.00;;;;;;;4.07;68.94;101150.81;6001049;28;20035;-70
2022/04/20 04:13:23;;;;;;;4.00;1.80;;;;;;;4.01;70.28;101145.91;6004038;28;20031;-69
2022/04/20 04:16:18;;;;;;;3.22;1.65;;;;;;;4.22;69.24;101155.09;6001826;28;20154;-69
2022/04/20 04:19:13;;;;;;;3.50;1.40;;;;;;;4.37;69.93;101158.56;6001709;28;20039;-69
2022/04/20 04:22:08;;;;;;;4.13;1.77;;;;;;;4.22;68.97;101155.09;6000865;28;20375;-70
2022/04/20 04:25:04;;;;;;;3.07;1.57;;;;;;;4.18;69.21;101156.22;6002988;28;20082;-69
2022/04/20 04:27:59;;;;;;;3.65;1.52;;;;;;;4.14;69.18;101152.09;6005142;28;20023;-70
2022/04/20 04:30:55;;;;;;;5.03;1.70;;;;;;;4.08;69.17;101165.59;6005118;28;20042;-70
2022/04/20 04:33:50;;;;;;;3.90;1.60;;;;;;;3.84;69.90;101148.72;6006035;28;20030;-69
2022/04/20 04:36:45;;;;;;;3.88;1.50;;;;;;;4.01;69.92;101156.41;6004827;28;20422;-70
2022/04/20 04:39:41;;;;;;;4.20;1.70;;;;;;;3.62;70.77;101157.03;6005460;28;20066;-70
2022/04/20 04:42:36;;;;;;;3.20;1.40;;;;;;;3.41;72.16;101166.16;6004967;28;20062;-70
2022/04/20 04:48:48;;;;;;;3.45;1.77;;;;;;;3.34;74.12;101162.22;6005517;28;20031;-70
2022/04/20 04:51:43;;;;;;;4.15;1.85;;;;;;;3.15;74.98;101158.97;6004656;28;20031;-69
2022/04/20 04:54:40;;;;;;;2.60;1.40;;;;;;;3.05;75.31;101166.50;6004854;28;20482;-69
2022/04/20 04:57:35;;;;;;;5.55;1.80;;;;;;;2.95;76.19;101165.34;6005179;28;20027;-70
2022/04/20 05:00:30;;;;;;;5.03;1.70;;;;;;;3.50;76.30;101176.13;6004451;28;20042;-70
2022/04/20 05:03:27;;;;;;;4.60;1.67;;;;;;;3.77;74.61;101163.16;5994348;28;20290;-69
2022/04/20 05:06:22;;;;;;;5.10;1.90;;;;;;;4.52;71.09;101158.44;6017509;28;20066;-69
2022/04/20 05:09:17;;;;;;;3.73;1.63;;;;;;;4.76;70.53;101163.91;6012538;28;20383;-69
2022/04/20 05:12:12;;;;;;;3.93;1.70;;;;;;;5.17;69.27;101159.44;6007225;28;20031;-68
2022/04/20 05:15:08;;;;;;;3.23;1.40;;;;;;;5.12;68.12;101169.44;6004830;28;20035;-68
2022/04/20 05:18:03;;;;;;;3.42;1.48;;;;;;;4.93;66.79;101166.31;6004473;28;20037;-69
2022/04/20 05:20:59;;;;;;;3.22;1.45;;;;;;;4.80;66.94;101173.28;6004310;28;20049;-71
2022/04/20 05:23:54;;;;;;;4.80;1.53;;;;;;;5.03;66.95;101177.91;6004405;28;20466;-71
2022/04/20 05:26:50;;;;;;;4.68;1.80;;;;;;;5.36;65.95;101166.97;6003742;28;20226;-71
2022/04/20 05:29:45;;;;;;;3.27;1.63;;;;;;;5.59;65.49;101163.66;6004385;28;20475;-69
2022/04/20 05:32:41;;;;;;;3.87;1.60;;;;;;;5.64;65.94;101166.81;6006386;28;20057;-69
2022/04/20 05:35:36;;;;;;;3.45;1.40;;;;;;;5.47;65.80;101161.84;6002931;28;20027;-69
2022/04/20 05:41:46;;;;;;;4.30;2.15;;;;;;;6.42;63.26;101170.19;6000691;28;20035;-69
2022/04/20 05:44:42;;;;;;;5.22;1.65;;;;;;;6.67;62.26;101175.41;6003463;28;20027;-69
2022/04/20 05:47:38;;;;;;;3.73;1.73;;;;;;;7.48;59.25;101170.28;6002743;28;20035;-68
2022/04/20 05:50:33;;;;;;;4.82;2.00;;;;;;;7.66;59.84;101172.38;6003975;28;20041;-68
2022/04/20 05:53:29;;;;;;;4.18;1.75;;;;;;;8.09;58.47;101177.88;6005296;28;20367;-70
2022/04/20 05:56:24;;;;;;;3.97;1.80;;;;;;;8.47;56.77;101180.19;6003017;28;20153;-70
2022/04/20 05:59:20;;;;;;;5.43;2.10;;;;;;;8.45;57.50;101187.41;6003490;28;20493;-69
2022/04/20 06:02:15;;;;;;;4.68;2.25;;;;;;;8.26;57.22;101174.72;6002363;28;20089;-69
2022/04/20 06:05:11;;;;;;;5.03;2.13;;;;;;;8.20;57.81;101179.66;6007090;28;20062;-69
2022/04/20 06:08:06;;;;;;;4.78;1.90;;;;;;;7.88;59.65;101176.84;6004978;28;20031;-69
2022/04/20 06:11:02;;;;;;;6.85;1.90;;;;;;;8.58;58.68;101176.69;6002875;28;20038;-69
2022/04/20 06:13:58;;;;;;;6.35;2.28;;;;;;;8.42;57.42;101173.56;5987712;28;20394;-68
2022/04/20 06:16:53;;;;;;;4.43;1.90;;;;;;;8.95;57.30;101178.91;6002395;28;20121;-70
2022/04/20 06:19:49;;;;;;;3.70;2.00;;;;;;;9.44;56.31;101175.72;6002776;28;20042;-69
2022/04/20 06:22:44;;;;;;;3.65;2.03;;;;;;;8.60;57.60;101182.69;6001828;28;20042;-69
2022/04/20 06:25:39;;;;;;;5.35;2.03;;;;;;;8.73;58.29;101186.03;6002718;28;20057;-70
2022/04/20 06:28:35;;;;;;;4.87;2.37;;;;;;;9.21;56.17;101179.44;6001792;28;20047;-70
2022/04/20 06:31:30;;;;;;;4.40;1.95;;;;;;;9.80;55.29;101171.81;6001582;28;20065;-70
2022/04/20 06:34:26;;;;;;;5.27;2.07;;;;;;;9.20;56.02;101184.84;5994967;28;20042;-69
2022/04/20 06:37:23;;;;;;;4.03;2.00;;;;;;;8.93;57.93;101178.19;6002044;28;20047;-70
2022/04/20 06:40:18;;;;;;;4.65;2.08;;;;;;;9.63;56.16;101185.59;6001095;28;20060;-69
2022/04/20 06:43:14;;;;;;;5.33;2.27;;;;;;;10.22;54.88;101177.91;6002117;28;20038;-69
2022/04/20 06:46:10;;;;;;;7.75;2.10;;;;;;;10.59;52.96;101176.41;6001178;28;20061;-69
2022/04/20 06:49:06;;;;;;;3.70;2.05;;;;;;;10.05;54.59;101182.00;6002391;28;20089;-68
2022/04/20 06:58:33;;;;;;;3.38;2.10;;;;;;;10.02;55.27;101179.59;6001144;28;20031;-70
2022/04/20 07:01:28;;;;;;;3.58;2.17;;;;;;;10.33;54.35;101167.22;6001095;28;20093;-70
2022/04/20 07:04:23;;;;;;;7.53;2.80;;;;;;;9.46;55.90;101178.22;6001933;28;20039;-69
2022/04/20 07:07:18;;;;;;;7.67;2.73;;;;;;;9.58;57.38;101164.81;6000580;28;20403;-70
2022/04/20 07:10:14;;;;;;;7.43;2.13;;;;;;;9.72;55.50;101161.00;6000518;28;20042;-70
2022/04/20 07:13:09;;;;;;;5.20;2.30;;;;;;;9.69;56.28;101155.13;6004322;28;20093;-70
2022/04/20 07:16:04;;;;;;;5.97;2.27;;;;;;;9.50;57.25;101138.16;6001162;28;20049;-70
2022/04/20 07:19:00;;;;;;;5.15;2.47;;;;;;;9.94;56.05;101133.53;6001896;28;20406;-69
2022/04/20 07:21:55;;;;;;;5.80;2.15;;;;;;;9.60;56.95;101135.56;6000748;28;20038;-69
2022/04/20 07:24:51;;;;;;;5.87;2.43;;;;;;;10.03;56.55;101138.88;6001965;28;20189;-69
2022/04/20 07:27:48;;;;;;;3.00;2.00;;;;;;;11.06;53.23;101128.88;6001306;28;20285;-70
2022/04/20 07:30:44;;;;;;;6.43;2.30;;;;;;;10.23;54.16;101152.25;6000961;28;20047;-70
2022/04/20 07:33:39;;;;;;;4.90;2.47;;;;;;;10.59;54.50;101147.22;6001609;28;20046;-70
2022/04/20 07:36:34;;;;;;;6.33;2.50;;;;;;;10.84;53.38;101155.66;6001303;28;20458;-69
2022/04/20 07:39:29;;;;;;;4.83;2.50;;;;;;;10.41;53.80;101154.13;6001083;28;20118;-69
2022/04/20 07:42:25;;;;;;;6.50;2.40;;;;;;;10.26;55.11;101171.38;5999666;28;20043;-70
2022/04/20 07:45:25;;;;;;;5.10;2.40;;;;;;;10.24;55.34;101164.53;6001528;28;20121;-69
2022/04/20 07:48:20;;;;;;;4.93;2.00;;;;;;;10.52;55.20;101180.56;6001325;28;20549;-69
2022/04/20 07:51:17;;;;;;;6.20;2.30;;;;;;;10.64;54.62;101194.56;6000964;28;20042;-70
2022/04/20 07:54:13;;;;;;;4.45;2.10;;;;;;;10.66;54.17;101182.84;6001377;28;20041;-69
2022/04/20 07:57:11;;;;;;;8.15;2.40;;;;;;;10.96;54.53;101191.69;6002102;28;20058;-69
2022/04/20 08:00:07;;;;;;;5.10;2.17;;;;;;;11.19;53.04;101182.53;6001619;28;20081;-69
2022/04/20 08:03:14;;;;;;;5.65;2.25;;;;;;;11.11;53.85;101190.34;6005658;28;20027;-70
2022/04/20 08:06:09;;;;;;;4.72;2.08;;;;;;;10.95;53.27;101192.69;6008012;28;20031;-69
2022/04/20 08:09:04;;;;;;;9.80;2.30;;;;;;;10.97;54.06;101193.38;6005470;28;20050;-69
2022/04/20 08:11:59;;;;;;;5.17;2.60;;;;;;;11.21;54.07;101196.50;6004942;28;20368;-70
2022/04/20 08:14:55;;;;;;;5.73;2.07;;;;;;;10.98;53.77;101179.16;6005337;28;20042;-70
2022/04/20 08:17:50;;;;;;;4.47;2.30;;;;;;;10.92;53.77;101179.69;6006091;28;20030;-70
2022/04/20 08:20:46;;;;;;;6.87;2.50;;;;;;;11.05;53.09;101170.50;6005521;28;20058;-70
2022/04/20 08:23:41;;;;;;;4.60;1.80;;;;;;;11.18;53.05;101186.16;6005968;28;20089;-70
2022/04/20 08:26:36;;;;;;;7.27;2.50;;;;;;;11.00;53.09;101187.81;6005928;28;20027;-69
2022/04/20 08:29:32;;;;;;;7.77;2.30;;;;;;;11.07;53.71;101189.78;6005608;28;20520;-70
2022/04/20 08:32:27;;;;;;;7.27;2.57;;;;;;;11.55;53.24;101189.78;6005513;28;20282;-70
2022/04/20 08:35:22;;;;;;;6.20;2.40;;;;;;;11.86;51.59;101179.88;6005449;28;20442;-69
2022/04/20 08:38:18;;;;;;;5.33;2.57;;;;;;;12.15;51.08;101169.19;6005753;28;20027;-69
2022/04/20 08:41:14;;;;;;;8.13;2.40;;;;;;;11.50;51.74;101170.78;6004925;28;20105;-70
2022/04/20 08:44:10;;;;;;;4.70;2.20;;;;;;;11.78;51.42;101175.28;6005726;28;20398;-70
2022/04/20 08:47:07;;;;;;;5.43;2.53;;;;;;;12.01;51.32;101181.09;5987549;28;20031;-69
2022/04/20 08:50:08;;;;;;;4.82;1.88;;;;;;;12.23;50.55;101188.72;6009956;28;20121;-69
2022/04/20 08:53:04;;;;;;;4.40;1.85;;;;;;;12.63;49.62;101191.09;6004948;28;20039;-70
2022/04/20 08:59:13;;;;;;;8.52;2.30;;;;;;;12.63;49.51;101176.94;6005124;28;20043;-70
2022/04/20 09:02:13;;;;;;;6.13;2.53;;;;;;;12.29;49.55;101180.16;5987314;28;20450;-70
2022/04/20 09:05:09;;;;;;;5.00;2.45;;;;;;;12.39;50.33;101172.16;6008792;28;20421;-69
2022/04/20 09:08:10;;;;;;;4.90;2.40;;;;;;;12.64;49.86;101166.13;6010313;28;20027;-70
2022/04/20 09:11:07;;;;;;;7.03;2.20;;;;;;;13.08;48.54;101168.00;5994253;28;20402;-69
2022/04/20 09:14:13;;;;;;;5.45;2.10;;;;;;;12.98;48.24;101167.22;6017478;28;20045;-70
2022/04/20 09:17:13;;;;;;;6.18;2.30;;;;;;;13.01;48.23;101171.41;6005093;28;20530;-69
2022/04/20 09:20:09;;;;;;;6.22;2.60;;;;;;;12.70;49.05;101168.22;6003730;28;20035;-69
2022/04/20 09:23:09;;;;;;;5.75;2.90;;;;;;;12.98;48.26;101171.69;5987188;28;20453;-69
2022/04/20 09:26:13;;;;;;;9.95;2.83;;;;;;;12.59;49.13;101167.56;6004172;28;20026;-70
2022/04/20 09:29:10;;;;;;;4.32;2.42;;;;;;;12.75;49.62;101170.41;6003997;28;20031;-69
2022/04/20 09:32:06;;;;;;;6.93;2.28;;;;;;;12.58;49.65;101172.06;6003906;28;20038;-69
2022/04/20 09:35:03;;;;;;;6.25;2.63;;;;;;;12.94;49.00;101168.50;5987258;28;20556;-70
2022/04/20 09:38:03;;;;;;;8.48;3.05;;;;;;;12.85;49.52;101172.06;6004308;28;20034;-69
2022/04/20 09:41:09;;;;;;;8.75;2.60;;;;;;;12.88;48.98;101160.28;6003543;28;20038;-70
2022/04/20 09:44:09;;;;;;;7.13;3.13;;;;;;;12.76;48.74;101159.66;6004258;28;20117;-70
2022/04/20 09:50:21;;;;;;;5.25;2.40;;;;;;;13.57;48.02;101152.47;6003167;28;20035;-70
2022/04/20 09:53:16;;;;;;;6.72;2.63;;;;;;;13.59;47.84;101150.47;6004151;28;20042;-70
2022/04/20 09:56:18;;;;;;;6.00;2.53;;;;;;;13.53;48.07;101151.13;6004247;28;20426;-69
2022/04/20 09:59:15;;;;;;;6.68;2.30;;;;;;;13.89;46.93;101147.38;6003791;28;20501;-70
2022/04/20 10:02:12;;;;;;;5.47;2.47;;;;;;;14.03;47.51;101152.13;6003392;28;20042;-69
2022/04/20 10:05:07;;;;;;;5.35;2.50;;;;;;;14.53;45.64;101140.75;6007599;28;20080;-70
2022/04/20 10:08:04;;;;;;;4.53;2.42;;;;;;;14.30;46.79;101143.09;6012213;28;20030;-69
2022/04/20 10:11:00;;;;;;;4.78;2.60;;;;;;;14.48;46.17;101121.72;6003238;28;20474;-69
2022/04/20 10:17:13;;;;;;;5.35;2.58;;;;;;;14.44;46.85;101126.53;6003999;28;20537;-70
2022/04/20 10:20:08;;;;;;;4.85;2.67;;;;;;;14.23;47.14;101129.59;5985532;28;20042;-70
2022/04/20 10:23:05;;;;;;;5.85;3.05;;;;;;;13.53;48.34;101124.47;6002492;28;20038;-69
2022/04/20 10:26:06;;;;;;;6.25;3.75;;;;;;;14.16;47.85;101136.53;6002983;28;20071;-70
2022/04/20 10:29:16;;;;;;;8.20;6.15;;;;;;;14.41;46.52;101112.66;5985475;28;20120;-69
2022/04/20 10:32:22;;;;;;;6.20;3.05;;;;;;;15.05;44.95;101104.84;6002809;28;20042;-70
2022/04/20 10:35:18;;;;;;;8.55;4.25;;;;;;;15.04;45.08;101110.31;6002723;28;20121;-70
2022/04/20 10:38:13;;;;;;;5.07;2.50;;;;;;;14.79;45.58;101106.78;6002878;28;20521;-70
2022/04/20 10:41:13;;;;;;;6.35;2.50;;;;;;;15.29;44.66;101104.84;6000956;28;20034;-70
2022/04/20 10:44:10;;;;;;;4.20;2.55;;;;;;;15.50;43.80;101104.38;6002261;28;20042;-70
2022/04/20 10:47:06;;;;;;;4.03;2.13;;;;;;;15.55;43.47;101101.19;6002390;28;20558;-70
2022/04/20 10:50:21;;;;;;;5.72;2.65;;;;;;;15.67;43.66;101089.16;6001771;28;20059;-70
2022/04/20 10:53:22;;;;;;;3.50;2.22;;;;;;;15.88;43.00;101084.06;6001553;28;20118;-69
2022/04/20 10:56:19;;;;;;;7.00;3.08;;;;;;;15.48;42.80;101075.16;5995604;28;20411;-70
2022/04/20 10:59:15;;;;;;;4.50;2.60;;;;;;;15.21;43.63;101072.78;6002077;28;20042;-70
2022/04/20 11:02:12;;;;;;;5.70;2.80;;;;;;;15.17;44.57;101070.59;6001463;28;20038;-70
2022/04/20 11:05:14;;;;;;;5.15;2.67;;;;;;;15.45;43.18;101062.06;6006272;28;20370;-70
2022/04/20 11:08:12;;;;;;;3.70;2.03;;;;;;;15.29;43.95;101063.94;6000669;28;20133;-69
2022/04/20 11:21:21;;;;;;;4.13;1.95;;;;;;;15.60;42.64;101054.22;5995220;28;20070;-71
2022/04/20 11:24:25;;;;;;;4.88;1.95;;;;;;;16.11;41.74;101049.41;6003832;28;20041;-70
2022/04/20 11:27:32;;;;;;;7.18;2.33;;;;;;;16.06;40.70;101057.97;6002251;28;20122;-70
2022/04/20 11:30:27;;;;;;;5.28;2.33;;;;;;;16.09;41.17;101063.78;6001758;28;20062;-69
2022/04/20 11:33:23;;;;;;;2.90;1.60;;;;;;;15.48;39.42;101061.78;6001788;28;20049;-70
2022/04/20 11:36:19;;;;;;;3.67;1.80;;;;;;;15.18;39.71;101067.78;6005964;28;20037;-69
2022/04/20 11:39:16;;;;;;;4.30;1.58;;;;;;;14.87;40.52;101053.38;6006938;28;20031;-70
2022/04/20 11:42:12;;;;;;;3.75;1.70;;;;;;;14.60;41.54;101051.00;6006613;28;20035;-70
2022/04/20 11:45:07;;;;;;;3.80;1.50;;;;;;;15.16;40.53;101043.06;6006804;28;20041;-70
2022/04/20 11:48:04;;;;;;;3.40;1.60;;;;;;;15.88;38.33;101044.78;5981536;29;20138;-70
2022/04/20 11:51:00;;;;;;;3.47;1.30;;;;;;;16.10;35.53;101037.88;6006167;28;20033;-70
2022/04/20 11:53:55;;;;;;;3.72;1.30;;;;;;;16.59;35.44;101042.00;6006524;28;20071;-70
2022/04/20 11:56:51;;;;;;;3.63;1.40;;;;;;;16.94;34.21;101020.97;6007030;28;20068;-71
2022/04/20 11:59:48;;;;;;;2.35;1.08;;;;;;;16.72;34.57;101022.66;6006814;28;20033;-71
2022/04/20 12:02:44;;;;;;;2.83;1.10;;;;;;;16.85;34.53;101022.06;6013766;28;20145;-70
2022/04/20 12:05:41;;;;;;;3.35;1.40;;;;;;;16.88;34.02;101011.81;6015118;28;20385;-70
2022/04/20 12:08:40;;;;;;;3.92;1.38;;;;;;;16.52;34.53;101022.22;6010270;28;20031;-70
2022/04/20 12:11:35;;;;;;;6.03;1.38;;;;;;;16.44;35.55;101019.59;6008963;28;20462;-70
2022/04/20 12:14:32;;;;;;;3.40;1.40;;;;;;;17.01;35.21;101022.75;6014254;28;20042;-70
2022/04/20 12:17:28;;;;;;;2.75;1.48;;;;;;;16.47;35.45;101021.94;6006319;28;20027;-70
2022/04/20 12:20:25;;;;;;;3.05;1.17;;;;;;;16.28;35.98;101030.41;6005703;28;20035;-70
2022/04/20 12:23:20;;;;;;;3.80;2.15;;;;;;;16.34;36.34;101015.50;6005516;28;20101;-69
2022/04/20 12:26:16;;;;;;;3.37;1.40;;;;;;;16.63;35.74;101013.84;6006171;28;20116;-70
2022/04/20 12:29:12;;;;;;;6.50;1.40;;;;;;;16.94;35.72;100999.53;6005702;28;20042;-71
2022/04/20 12:32:07;;;;;;;4.30;1.38;;;;;;;17.12;33.81;101008.91;6005501;28;20045;-70
2022/04/20 12:35:03;;;;;;;8.60;1.50;;;;;;;16.88;34.84;101005.59;5988443;28;20038;-71
2022/04/20 12:37:58;;;;;;;2.85;1.50;;;;;;;17.66;34.01;100992.69;6005312;28;20022;-70
2022/04/20 12:40:53;;;;;;;2.00;1.10;;;;;;;17.08;34.59;100998.75;6005189;28;20054;-69
2022/04/20 12:43:49;;;;;;;4.75;1.30;;;;;;;17.55;34.50;100993.13;6004868;28;20034;-70
2022/04/20 12:46:44;;;;;;;5.93;1.60;;;;;;;17.84;33.55;100998.50;6004920;28;20394;-70
2022/04/20 12:49:43;;;;;;;2.80;1.23;;;;;;;17.67;33.28;100991.63;6005732;28;20038;-70
2022/04/20 12:52:47;;;;;;;2.50;1.33;;;;;;;16.96;33.09;100994.84;6004391;28;20430;-70
2022/04/20 13:02:14;;;;;;;3.95;1.20;;;;;;;16.65;33.84;100995.75;6012555;28;20065;-71
2022/04/20 13:05:13;;;;;;;3.00;1.03;;;;;;;16.58;34.00;100993.94;6009257;28;20034;-70
2022/04/20 13:08:10;;;;;;;2.72;1.27;;;;;;;16.86;33.72;100986.22;6013287;28;20534;-71
2022/04/20 13:11:06;;;;;;;2.42;1.20;;;;;;;17.21;32.44;100980.19;6004400;28;20031;-70
2022/04/20 13:14:02;;;;;;;4.03;1.20;;;;;;;17.21;32.82;100977.53;6017745;28;20474;-69
2022/04/20 13:16:57;;;;;;;2.75;1.13;;;;;;;17.24;32.06;100974.47;6004617;28;20062;-69
2022/04/20 13:19:53;;;;;;;2.65;1.30;;;;;;;16.89;33.34;100975.13;6004734;28;20035;-69
2022/04/20 13:22:48;;;;;;;2.90;1.67;;;;;;;16.14;33.67;100972.31;6004417;28;20038;-69
2022/04/20 13:28:57;;;;;;;3.80;1.60;;;;;;;16.71;33.63;100972.78;6004386;28;20027;-69
2022/04/20 13:31:52;;;;;;;2.70;0.90;;;;;;;16.71;32.78;100979.97;6003310;28;20038;-69
2022/04/20 13:34:48;;;;;;;3.30;1.40;;;;;;;16.59;32.55;100972.38;6004833;28;20122;-69
2022/04/20 13:37:43;;;;;;;3.60;1.40;;;;;;;17.01;30.54;100971.03;6004629;28;20386;-68
2022/04/20 13:40:40;;;;;;;1.90;0.90;;;;;;;17.22;30.61;100971.16;6003680;28;20046;-69
2022/04/20 13:43:35;;;;;;;5.20;1.25;;;;;;;17.51;30.56;100973.03;6002957;28;20027;-69
2022/04/20 13:46:30;;;;;;;3.03;1.20;;;;;;;17.32;31.94;100977.06;6003913;28;20453;-69
2022/04/20 13:49:25;;;;;;;5.43;1.30;;;;;;;17.15;31.99;100964.84;6004236;28;20276;-69
2022/04/20 13:52:21;;;;;;;3.93;1.40;;;;;;;17.10;33.05;100967.25;6003472;28;20030;-69
2022/04/20 13:55:16;;;;;;;2.53;1.10;;;;;;;16.53;33.85;100972.22;6003930;28;20043;-69
2022/04/20 13:58:11;;;;;;;3.33;1.17;;;;;;;16.33;34.69;100974.53;6003496;28;20306;-69
2022/04/20 14:01:08;;;;;;;1.73;1.10;;;;;;;16.09;34.35;100977.31;6008409;28;20297;-69
2022/04/20 14:04:03;;;;;;;7.25;1.40;;;;;;;16.28;34.89;100987.59;6006287;28;20438;-69
2022/04/20 14:06:59;;;;;;;5.03;1.10;;;;;;;16.54;34.07;100988.13;6016570;28;20031;-69
2022/04/20 14:09:55;;;;;;;4.28;1.10;;;;;;;16.84;33.07;100978.38;6003851;28;20038;-68
2022/04/20 14:12:51;;;;;;;1.65;0.90;;;;;;;16.81;31.88;100973.38;6015474;28;20038;-69
2022/04/20 14:15:46;;;;;;;7.40;2.73;;;;;;;17.10;32.69;100964.56;6003661;28;20513;-69
2022/04/20 14:18:41;;;;;;;4.13;1.30;;;;;;;17.01;31.42;100963.81;6003731;28;20478;-69
2022/04/20 14:21:37;;;;;;;3.53;1.13;;;;;;;17.38;31.49;100971.00;6002719;28;20039;-69
2022/04/20 14:24:33;;;;;;;2.13;1.00;;;;;;;17.16;30.17;100966.53;6003192;28;20058;-69
2022/04/20 14:33:59;;;;;;;1.02;0.73;;;;;;;16.02;31.78;100971.84;6003285;28;20038;-69
2022/04/20 14:36:55;;;;;;;3.92;0.90;;;;;;;15.99;32.66;100982.06;6002635;28;20053;-68